Time;durP1;ratioP1;P1;durP2;ratioP2;P2;SDS_P1;SDS_P2;PMS_P1;PMS_P2;Temp;Humidity;BMP_temperature;BMP_pressure;BME280_temperature;BME280_humidity;BME280_pressure;Samples;Min_cycle;Max_cycle;Signal;HPM_P1;HPM_P2
2022/06/19 00:01:03;;;;;;;4.13;1.15;;;14.20;99.90;;;;;;5067876;28;20135;-70
2022/06/19 00:03:37;;;;;;;4.25;0.98;;;14.20;99.90;;;;;;5074332;28;20072;-70
2022/06/19 00:06:03;;;;;;;3.88;1.10;;;14.10;99.90;;;;;;5061866;28;20383;-70
2022/06/19 00:08:29;;;;;;;;;;;14.10;99.90;;;;;;5073498;28;20048;-70
2022/06/19 00:10:56;;;;;;;4.57;0.95;;;14.10;99.90;;;;;;5080130;28;19927;-70
2022/06/19 00:13:21;;;;;;;;;;;14.10;99.90;;;;;;5070766;28;20745;-70
2022/06/19 00:15:47;;;;;;;3.85;0.90;;;14.10;99.90;;;;;;5058929;28;19945;-70
2022/06/19 00:18:13;;;;;;;3.08;0.98;;;14.10;99.90;;;;;;5072127;28;20064;-69
2022/06/19 00:20:39;;;;;;;2.33;0.75;;;14.10;99.90;;;;;;5061869;28;20048;-69
2022/06/19 00:23:05;;;;;;;2.67;0.90;;;14.10;99.90;;;;;;5084810;28;20119;-69
2022/06/19 00:25:31;;;;;;;5.30;1.30;;;14.10;99.90;;;;;;5052577;28;20079;-70
2022/06/19 00:27:57;;;;;;;4.07;1.13;;;14.10;99.90;;;;;;5074904;28;20493;-70
2022/06/19 00:30:22;;;;;;;5.40;1.20;;;14.10;99.90;;;;;;5065838;28;20092;-70
2022/06/19 00:32:48;;;;;;;4.07;0.98;;;14.10;99.90;;;;;;5079829;28;20051;-70
2022/06/19 00:35:14;;;;;;;2.85;0.73;;;14.10;99.90;;;;;;5084851;28;20072;-69
2022/06/19 00:37:40;;;;;;;3.90;1.00;;;14.10;99.90;;;;;;5076873;28;20032;-70
2022/06/19 00:40:09;;;;;;;3.67;0.95;;;14.10;99.90;;;;;;5086987;28;20073;-69
2022/06/19 00:42:34;;;;;;;2.60;0.70;;;14.10;99.90;;;;;;5075698;28;20061;-70
2022/06/19 00:45:01;;;;;;;4.47;1.10;;;14.20;99.90;;;;;;5079025;28;20102;-69
2022/06/19 00:47:35;;;;;;;3.65;1.10;;;14.20;99.90;;;;;;5074765;28;20124;-71
2022/06/19 00:50:31;;;;;;;4.40;1.13;;;14.20;99.90;;;;;;5075530;28;20040;-71
2022/06/19 00:52:58;;;;;;;5.18;1.00;;;14.20;99.90;;;;;;5076489;28;20048;-71
2022/06/19 00:55:28;;;;;;;7.13;1.70;;;14.20;99.90;;;;;;5063079;28;20125;-71
2022/06/19 00:58:14;;;;;;;3.13;0.85;;;14.30;99.90;;;;;;5085929;28;20043;-70
2022/06/19 01:00:40;;;;;;;4.03;0.90;;;14.20;99.90;;;;;;5054347;28;20055;-70
2022/06/19 01:03:10;;;;;;;8.52;1.80;;;14.30;99.90;;;;;;5056511;28;20484;-71
2022/06/19 01:05:38;;;;;;;5.93;1.52;;;14.30;99.90;;;;;;5077469;28;20040;-71
2022/06/19 01:08:04;;;;;;;8.73;1.60;;;14.30;99.90;;;;;;5059669;28;20041;-71
2022/06/19 01:10:37;;;;;;;8.00;1.70;;;14.30;99.90;;;;;;5051952;28;20044;-71
2022/06/19 01:13:03;;;;;;;8.40;1.70;;;14.20;99.90;;;;;;5087620;28;20471;-71
2022/06/19 01:15:30;;;;;;;6.80;1.80;;;14.20;99.90;;;;;;5070584;28;20044;-71
2022/06/19 01:17:59;;;;;;;8.18;1.80;;;14.20;99.90;;;;;;5053983;28;20123;-71
2022/06/19 01:20:27;;;;;;;7.13;1.38;;;14.20;99.90;;;;;;5071416;28;20044;-71
2022/06/19 01:23:13;;;;;;;9.98;2.25;;;14.20;99.90;;;;;;5072090;28;20059;-71
2022/06/19 01:25:41;;;;;;;5.53;1.63;;;14.20;99.90;;;;;;5068546;28;20541;-71
2022/06/19 01:31:21;;;;;;;10.18;1.70;;;14.20;99.90;;;;;;5084787;28;20098;-71
2022/06/19 01:33:55;;;;;;;9.20;1.90;;;14.20;99.90;;;;;;5077296;28;20032;-72
2022/06/19 01:36:22;;;;;;;7.00;1.70;;;14.20;99.90;;;;;;5083043;28;20064;-70
2022/06/19 01:38:51;;;;;;;8.70;1.88;;;14.20;99.90;;;;;;5073243;28;20044;-70
2022/06/19 01:41:26;;;;;;;9.43;1.90;;;14.30;99.90;;;;;;5056379;28;20071;-71
2022/06/19 01:43:52;;;;;;;12.45;2.83;;;14.20;99.90;;;;;;5088608;28;20047;-71
2022/06/19 01:46:18;;;;;;;7.18;1.77;;;14.20;99.90;;;;;;5083972;28;20045;-71
2022/06/19 01:48:45;;;;;;;5.72;1.33;;;14.20;99.90;;;;;;5075002;28;20502;-71
2022/06/19 01:51:10;;;;;;;;;;;14.10;99.90;;;;;;5044299;28;20071;-70
2022/06/19 01:53:56;;;;;;;8.35;1.90;;;14.10;99.90;;;;;;5075223;28;19924;-70
2022/06/19 01:56:22;;;;;;;7.80;1.52;;;14.20;99.90;;;;;;5059364;28;20202;-70
2022/06/19 01:58:50;;;;;;;;;;;14.10;99.90;;;;;;5068557;28;20059;-70
2022/06/19 02:01:15;;;;;;;;;;;14.10;99.90;;;;;;5063175;28;19963;-70
2022/06/19 02:03:54;;;;;;;6.65;1.50;;;14.10;99.90;;;;;;5067302;28;19956;-70
2022/06/19 02:06:25;;;;;;;7.50;1.55;;;14.10;99.90;;;;;;5066038;28;20452;-70
2022/06/19 02:08:51;;;;;;;12.45;2.28;;;14.10;99.90;;;;;;5067219;28;20063;-70
2022/06/19 02:11:18;;;;;;;11.68;2.10;;;14.10;99.90;;;;;;5047628;28;20079;-69
2022/06/19 02:13:46;;;;;;;9.77;2.33;;;14.00;99.90;;;;;;5064462;28;20044;-70
2022/06/19 02:16:17;;;;;;;8.73;1.98;;;14.00;99.90;;;;;;5067688;28;20403;-69
2022/06/19 02:18:46;;;;;;;8.73;1.95;;;14.00;99.90;;;;;;5067070;28;20068;-69
2022/06/19 02:21:19;;;;;;;12.52;2.28;;;14.00;99.90;;;;;;5066878;28;20056;-70
2022/06/19 02:23:46;;;;;;;8.27;1.70;;;13.90;99.90;;;;;;5066005;28;20574;-70
2022/06/19 02:26:13;;;;;;;7.88;1.90;;;14.00;99.90;;;;;;5068490;28;20054;-70
2022/06/19 02:28:45;;;;;;;9.95;1.98;;;13.90;99.90;;;;;;5067916;28;20045;-70
2022/06/19 02:31:11;;;;;;;15.82;2.42;;;13.90;99.90;;;;;;5067772;28;20445;-70
2022/06/19 02:33:42;;;;;;;6.63;1.98;;;13.80;99.90;;;;;;5066758;28;20063;-70
2022/06/19 02:36:43;;;;;;;6.03;1.50;;;13.80;99.90;;;;;;5051045;28;20051;-71
2022/06/19 02:39:21;;;;;;;10.60;2.10;;;13.80;99.90;;;;;;5006027;28;20057;-71
2022/06/19 02:42:00;;;;;;;6.22;1.45;;;13.80;99.90;;;;;;5069831;28;20044;-70
2022/06/19 02:44:35;;;;;;;7.63;1.73;;;13.80;99.90;;;;;;5087034;28;20043;-70
2022/06/19 02:47:01;;;;;;;7.20;1.27;;;13.70;99.90;;;;;;5081607;28;20483;-70
2022/06/19 02:49:27;;;;;;;8.98;1.83;;;13.70;99.90;;;;;;5070275;28;20458;-70
2022/06/19 02:51:58;;;;;;;7.90;1.38;;;13.80;99.90;;;;;;5058384;28;20193;-70
2022/06/19 02:54:24;;;;;;;7.95;1.77;;;13.80;99.90;;;;;;5067755;28;20052;-70
2022/06/19 02:56:50;;;;;;;8.70;1.88;;;13.80;99.90;;;;;;5055131;28;20048;-70
2022/06/19 02:59:15;;;;;;;11.55;2.13;;;13.70;99.90;;;;;;5076687;28;20043;-70
2022/06/19 03:01:41;;;;;;;9.05;1.80;;;13.70;99.90;;;;;;5076605;28;20042;-70
2022/06/19 03:04:16;;;;;;;7.38;1.80;;;13.70;99.90;;;;;;5080859;28;20131;-70
2022/06/19 03:06:42;;;;;;;5.45;1.20;;;13.70;99.90;;;;;;5068563;28;20040;-70
2022/06/19 03:09:08;;;;;;;5.20;1.40;;;13.80;99.90;;;;;;5061193;28;20044;-70
2022/06/19 03:11:33;;;;;;;5.97;1.23;;;13.80;99.90;;;;;;5067807;28;20541;-70
2022/06/19 03:13:59;;;;;;;7.63;1.40;;;13.80;99.90;;;;;;5060784;28;20113;-70
2022/06/19 03:16:26;;;;;;;3.70;1.00;;;13.80;99.90;;;;;;5074343;28;20048;-70
2022/06/19 03:18:52;;;;;;;7.15;1.88;;;13.80;99.90;;;;;;5053990;28;20512;-70
2022/06/19 03:21:18;;;;;;;5.95;1.50;;;13.70;99.90;;;;;;5081423;28;20469;-70
2022/06/19 03:23:44;;;;;;;4.97;1.42;;;13.80;99.90;;;;;;5084993;28;20089;-70
2022/06/19 03:26:10;;;;;;;;;;;13.70;99.90;;;;;;5079426;28;20048;-70
2022/06/19 03:28:36;;;;;;;3.42;1.10;;;13.70;99.90;;;;;;5080695;28;19924;-70
2022/06/19 03:31:02;;;;;;;4.38;1.38;;;13.70;99.90;;;;;;5085858;28;20086;-71
2022/06/19 03:33:28;;;;;;;4.38;1.20;;;13.80;99.90;;;;;;5066201;28;20446;-71
2022/06/19 03:35:54;;;;;;;5.22;1.40;;;13.80;99.90;;;;;;5076740;28;20491;-70
2022/06/19 03:38:20;;;;;;;4.97;1.27;;;13.80;99.90;;;;;;5080794;28;20043;-77
2022/06/19 03:40:45;;;;;;;;;;;13.80;99.90;;;;;;5074494;28;20506;-77
2022/06/19 03:43:11;;;;;;;7.95;1.60;;;13.80;99.90;;;;;;5080833;28;19916;-77
2022/06/19 03:45:37;;;;;;;8.60;1.60;;;13.90;99.90;;;;;;5081630;28;20033;-79
2022/06/19 03:48:03;;;;;;;6.07;1.35;;;13.80;99.90;;;;;;5063716;28;20664;-79
2022/06/19 03:50:29;;;;;;;11.70;1.95;;;13.60;99.90;;;;;;5079025;28;20115;-78
2022/06/19 03:52:55;;;;;;;6.35;1.30;;;13.50;99.90;;;;;;5081610;28;20036;-77
2022/06/19 03:55:20;;;;;;;7.47;1.17;;;13.20;99.90;;;;;;5071867;28;20377;-77
2022/06/19 03:57:46;;;;;;;5.93;1.20;;;13.10;99.90;;;;;;5077716;28;20123;-77
2022/06/19 04:00:17;;;;;;;5.45;1.15;;;13.00;99.90;;;;;;5077640;28;20512;-76
2022/06/19 04:02:44;;;;;;;3.95;1.10;;;12.90;99.90;;;;;;5071701;28;20158;-76
2022/06/19 04:05:13;;;;;;;1.50;0.70;;;13.00;99.90;;;;;;5068917;28;20045;-77
2022/06/19 04:07:48;;;;;;;4.68;1.00;;;12.90;99.90;;;;;;5038449;28;20052;-77
2022/06/19 04:10:15;;;;;;;3.78;1.08;;;12.80;99.90;;;;;;5069809;28;20149;-77
2022/06/19 04:12:41;;;;;;;5.35;1.10;;;12.70;99.90;;;;;;5068729;28;20044;-77
2022/06/19 04:15:09;;;;;;;6.07;1.00;;;12.90;99.90;;;;;;5052871;28;20051;-77
2022/06/19 04:17:36;;;;;;;9.02;1.67;;;12.80;99.90;;;;;;5068061;28;20392;-76
2022/06/19 04:20:02;;;;;;;;;;;12.80;99.90;;;;;;5055238;28;20041;-76
2022/06/19 04:22:28;;;;;;;8.40;1.83;;;12.70;99.90;;;;;;5071589;28;19920;-77
2022/06/19 04:24:54;;;;;;;7.45;1.92;;;12.80;99.90;;;;;;5067986;28;20472;-76
2022/06/19 04:27:20;;;;;;;9.55;2.05;;;12.80;99.90;;;;;;5069055;28;20131;-77
2022/06/19 04:29:45;;;;;;;7.45;1.50;;;12.60;99.90;;;;;;5066797;28;20051;-77
2022/06/19 04:32:11;;;;;;;5.90;1.55;;;12.40;99.90;;;;;;5069638;28;20040;-77
2022/06/19 04:34:36;;;;;;;9.00;2.00;;;12.70;99.90;;;;;;5052436;28;20068;-77
2022/06/19 04:37:02;;;;;;;7.13;1.73;;;12.40;99.90;;;;;;5070220;28;20044;-77
2022/06/19 04:39:28;;;;;;;3.75;1.30;;;12.40;99.90;;;;;;5032288;28;20045;-77
2022/06/19 04:41:53;;;;;;;7.75;1.48;;;12.20;99.90;;;;;;5067835;28;20123;-77
2022/06/19 04:44:20;;;;;;;4.63;1.45;;;12.70;99.90;;;;;;5068023;28;20092;-77
2022/06/19 04:46:45;;;;;;;4.40;1.10;;;12.30;99.90;;;;;;5079283;28;20043;-77
2022/06/19 04:49:13;;;;;;;7.72;2.22;;;12.60;99.90;;;;;;5070730;28;20127;-76
2022/06/19 04:51:39;;;;;;;9.80;1.70;;;12.10;99.90;;;;;;5068061;28;20080;-76
2022/06/19 04:54:05;;;;;;;;;;;12.00;99.90;;;;;;5071529;28;20036;-76
2022/06/19 04:56:30;;;;;;;4.70;1.10;;;12.40;99.90;;;;;;5068132;28;19926;-76
2022/06/19 04:58:56;;;;;;;5.30;1.42;;;12.00;99.90;;;;;;5068690;28;20102;-76
2022/06/19 05:01:37;;;;;;;6.10;1.65;;;12.30;99.90;;;;;;5073625;28;20093;-76
2022/06/19 05:04:06;;;;;;;6.28;1.50;;;12.10;99.90;;;;;;5076274;28;20044;-76
2022/06/19 05:06:31;;;;;;;4.43;1.10;;;12.10;99.90;;;;;;5090096;28;20127;-76
2022/06/19 05:08:58;;;;;;;7.15;1.40;;;12.60;99.90;;;;;;5088672;28;20799;-76
2022/06/19 05:11:25;;;;;;;3.53;0.88;;;12.40;99.90;;;;;;5060010;28;20078;-77
2022/06/19 05:13:51;;;;;;;4.25;1.10;;;12.60;99.90;;;;;;5061046;28;20044;-76
2022/06/19 05:16:20;;;;;;;8.10;1.70;;;12.50;99.90;;;;;;5078459;28;20045;-76
2022/06/19 05:18:47;;;;;;;5.65;1.38;;;12.40;99.90;;;;;;5077516;28;20465;-76
2022/06/19 05:21:13;;;;;;;4.72;1.20;;;12.00;99.90;;;;;;5074565;28;20488;-76
2022/06/19 05:23:41;;;;;;;3.38;0.85;;;12.10;99.90;;;;;;5076044;28;20051;-76
2022/06/19 05:26:09;;;;;;;5.07;1.13;;;12.20;99.90;;;;;;5056221;28;20094;-77
2022/06/19 05:28:36;;;;;;;7.25;1.25;;;11.90;99.90;;;;;;5076789;28;20123;-76
2022/06/19 05:31:02;;;;;;;5.20;1.48;;;11.90;99.90;;;;;;5075244;28;20185;-77
2022/06/19 05:33:29;;;;;;;;;;;12.10;99.90;;;;;;5079541;28;20065;-76
2022/06/19 05:35:55;;;;;;;6.50;1.38;;;12.00;99.90;;;;;;5075713;28;19916;-76
2022/06/19 05:38:21;;;;;;;5.18;1.23;;;12.10;99.90;;;;;;5058826;28;20725;-76
2022/06/19 05:40:50;;;;;;;5.50;1.27;;;11.90;99.90;;;;;;5077351;28;20044;-76
2022/06/19 05:43:15;;;;;;;3.88;1.20;;;11.90;99.90;;;;;;5087190;28;20191;-76
2022/06/19 05:45:52;;;;;;;6.22;1.30;;;12.10;99.90;;;;;;5089435;28;20107;-76
2022/06/19 05:48:18;;;;;;;6.35;1.25;;;12.20;99.90;;;;;;5076798;28;20043;-77
2022/06/19 05:50:44;;;;;;;;;;;12.00;99.90;;;;;;5084316;28;20090;-76
2022/06/19 05:53:10;;;;;;;6.03;1.30;;;12.00;99.90;;;;;;5089758;28;20366;-76
2022/06/19 05:55:35;;;;;;;5.65;1.38;;;12.10;99.90;;;;;;5060931;28;20051;-76
2022/06/19 05:58:01;;;;;;;3.10;0.82;;;12.20;99.90;;;;;;5079514;28;20033;-75
2022/06/19 06:00:27;;;;;;;10.13;1.85;;;12.30;99.90;;;;;;5071069;28;20041;-76
2022/06/19 06:02:52;;;;;;;7.45;1.33;;;12.10;99.90;;;;;;5083198;28;20036;-76
2022/06/19 06:05:18;;;;;;;11.18;1.90;;;12.30;99.90;;;;;;5083593;28;20069;-76
2022/06/19 06:07:44;;;;;;;12.50;1.80;;;12.10;99.90;;;;;;5084870;28;20048;-76
2022/06/19 06:10:10;;;;;;;8.90;1.65;;;12.20;99.90;;;;;;5079807;28;20072;-76
2022/06/19 06:12:36;;;;;;;7.03;1.50;;;12.20;99.90;;;;;;5064154;28;20045;-75
2022/06/19 06:15:01;;;;;;;7.82;1.65;;;12.30;99.90;;;;;;5058968;28;20070;-75
2022/06/19 06:17:27;;;;;;;7.03;1.17;;;12.00;99.90;;;;;;5082894;28;20060;-75
2022/06/19 06:19:53;;;;;;;7.05;1.58;;;12.30;99.90;;;;;;5089138;28;20554;-75
2022/06/19 06:22:18;;;;;;;8.88;1.83;;;12.20;99.90;;;;;;5068215;28;20045;-75
2022/06/19 06:24:44;;;;;;;5.30;1.15;;;12.20;99.90;;;;;;5073417;28;20429;-75
2022/06/19 06:27:10;;;;;;;5.82;1.25;;;12.20;99.90;;;;;;5064026;28;20040;-75
2022/06/19 06:29:36;;;;;;;7.25;1.20;;;12.10;99.90;;;;;;5081093;28;20062;-75
2022/06/19 06:32:01;;;;;;;6.45;1.20;;;12.10;99.90;;;;;;5067033;28;20127;-76
2022/06/19 06:34:27;;;;;;;7.55;1.48;;;12.30;99.90;;;;;;5052869;28;20097;-75
2022/06/19 06:36:53;;;;;;;5.47;1.30;;;12.20;99.90;;;;;;5073713;28;20049;-76
2022/06/19 06:39:20;;;;;;;6.32;1.15;;;12.50;99.90;;;;;;5069911;28;20043;-77
2022/06/19 06:41:45;;;;;;;6.18;1.30;;;12.60;99.90;;;;;;5058043;28;20039;-77
2022/06/19 06:44:15;;;;;;;6.30;1.40;;;12.40;99.90;;;;;;5079790;28;20090;-79
2022/06/19 06:46:41;;;;;;;7.28;1.40;;;12.70;99.90;;;;;;5067258;28;20123;-75
2022/06/19 06:49:08;;;;;;;8.07;1.50;;;12.50;99.90;;;;;;5075185;28;20131;-75
2022/06/19 06:51:34;;;;;;;6.35;1.58;;;12.60;99.90;;;;;;5065097;28;20128;-75
2022/06/19 06:54:00;;;;;;;4.47;0.90;;;12.80;99.90;;;;;;5073326;28;20127;-75
2022/06/19 06:56:30;;;;;;;2.70;0.77;;;12.80;99.90;;;;;;5066124;28;20045;-75
2022/06/19 06:58:56;;;;;;;4.15;0.82;;;12.90;99.90;;;;;;5072151;28;20098;-75
2022/06/19 07:01:23;;;;;;;2.95;0.70;;;12.80;99.90;;;;;;5073476;28;20033;-75
2022/06/19 07:03:54;;;;;;;5.63;1.30;;;12.90;99.90;;;;;;5067303;28;20587;-75
2022/06/19 07:06:24;;;;;;;7.00;1.30;;;12.80;99.90;;;;;;5078978;28;20121;-74
2022/06/19 07:08:49;;;;;;;3.88;1.00;;;12.80;99.90;;;;;;5078706;28;20427;-75
2022/06/19 07:11:27;;;;;;;4.63;1.35;;;12.90;99.90;;;;;;5079944;28;20119;-74
2022/06/19 07:13:53;;;;;;;5.05;1.27;;;12.90;99.90;;;;;;5076196;28;20043;-75
2022/06/19 07:16:19;;;;;;;;;;;12.80;99.90;;;;;;5060674;28;20063;-75
2022/06/19 07:18:45;;;;;;;7.78;1.30;;;12.80;99.90;;;;;;5092462;28;19924;-75
2022/06/19 07:21:11;;;;;;;3.05;1.00;;;12.70;99.90;;;;;;5071635;28;20391;-76
2022/06/19 07:23:38;;;;;;;1.25;0.35;;;12.90;99.90;;;;;;5079413;28;20041;-75
2022/06/19 07:26:07;;;;;;;0.88;0.40;;;13.10;99.90;;;;;;5055924;28;20045;-74
2022/06/19 07:28:33;;;;;;;2.85;0.70;;;13.00;99.90;;;;;;5074963;28;20043;-74
2022/06/19 07:30:58;;;;;;;5.53;1.02;;;13.30;99.90;;;;;;5092756;28;20100;-74
2022/06/19 07:33:24;;;;;;;5.80;1.13;;;13.30;99.90;;;;;;5075724;28;20059;-74
2022/06/19 07:35:50;;;;;;;4.10;1.20;;;13.10;99.90;;;;;;5080576;28;20044;-75
2022/06/19 07:38:16;;;;;;;9.02;1.50;;;13.30;99.90;;;;;;5082574;28;20032;-75
2022/06/19 07:40:42;;;;;;;4.80;1.10;;;13.10;99.90;;;;;;5045132;28;20055;-74
2022/06/19 07:43:08;;;;;;;6.35;1.10;;;13.40;99.90;;;;;;5083290;28;20487;-74
2022/06/19 07:45:34;;;;;;;5.90;1.20;;;13.30;99.90;;;;;;5067831;28;20407;-74
2022/06/19 07:50:47;;;;;;;3.05;0.80;;;13.50;99.90;;;;;;5092729;28;20052;-74
2022/06/19 07:53:13;;;;;;;5.10;1.15;;;13.60;99.90;;;;;;5072050;28;20075;-75
2022/06/19 07:55:39;;;;;;;3.33;1.00;;;13.50;99.90;;;;;;5059908;28;20071;-69
2022/06/19 07:58:05;;;;;;;3.08;0.80;;;13.40;99.90;;;;;;5071948;28;20044;-69
2022/06/19 08:00:34;;;;;;;5.57;0.90;;;13.40;99.90;;;;;;5084103;28;20040;-70
2022/06/19 08:03:00;;;;;;;5.65;1.27;;;13.70;99.90;;;;;;5085343;28;20503;-70
2022/06/19 08:05:29;;;;;;;5.97;1.17;;;13.60;99.90;;;;;;5067315;28;20063;-70
2022/06/19 08:07:57;;;;;;;6.40;1.50;;;13.40;99.90;;;;;;5085611;28;20067;-70
2022/06/19 08:10:37;;;;;;;6.50;1.15;;;13.30;99.90;;;;;;5071529;28;20075;-70
2022/06/19 08:13:05;;;;;;;3.92;1.10;;;13.20;99.90;;;;;;5066651;28;20556;-71
2022/06/19 08:15:33;;;;;;;5.07;1.15;;;13.40;99.90;;;;;;5081405;28;20044;-71
2022/06/19 08:17:59;;;;;;;8.02;1.25;;;13.20;99.90;;;;;;5065166;28;20103;-71
2022/06/19 08:20:25;;;;;;;;;;;13.30;99.90;;;;;;5060029;28;20056;-71
2022/06/19 08:22:51;;;;;;;6.65;1.23;;;13.30;99.90;;;;;;5053729;28;20328;-71
2022/06/19 08:25:19;;;;;;;6.05;1.30;;;13.30;99.90;;;;;;5068257;28;20475;-71
2022/06/19 08:27:48;;;;;;;3.53;0.90;;;13.20;99.90;;;;;;5076152;28;20040;-71
2022/06/19 08:30:40;;;;;;;2.83;0.90;;;13.40;99.90;;;;;;5040823;28;20048;-71
2022/06/19 08:33:07;;;;;;;5.38;1.13;;;13.50;99.90;;;;;;5054238;28;20036;-71
2022/06/19 08:35:40;;;;;;;6.30;1.10;;;13.60;99.90;;;;;;5063062;28;20040;-71
2022/06/19 08:38:10;;;;;;;5.30;1.08;;;13.60;99.90;;;;;;5049431;28;20079;-71
2022/06/19 08:40:38;;;;;;;4.70;1.10;;;13.70;99.90;;;;;;5059085;28;20346;-70
2022/06/19 08:43:11;;;;;;;7.13;1.27;;;13.60;99.90;;;;;;5057896;28;20040;-69
2022/06/19 08:46:03;;;;;;;5.07;1.20;;;13.80;99.90;;;;;;5061961;28;20032;-71
2022/06/19 08:48:39;;;;;;;8.02;1.15;;;13.70;99.90;;;;;;5065069;28;20097;-71
2022/06/19 08:51:28;;;;;;;5.40;1.10;;;13.60;99.90;;;;;;5068993;28;20040;-71
2022/06/19 08:54:12;;;;;;;3.85;1.00;;;13.60;99.90;;;;;;5053264;28;20037;-71
2022/06/19 08:56:47;;;;;;;4.20;1.15;;;13.70;99.90;;;;;;5070915;28;20086;-72
2022/06/19 08:59:43;;;;;;;4.03;1.00;;;13.90;99.90;;;;;;5054397;28;20040;-71
2022/06/19 09:02:29;;;;;;;6.97;1.00;;;13.90;99.90;;;;;;5070770;28;20040;-71
2022/06/19 09:08:25;;;;;;;3.78;0.90;;;13.80;99.90;;;;;;5061769;28;20048;-71
2022/06/19 09:11:09;;;;;;;5.32;0.90;;;13.90;99.90;;;;;;5046943;28;20044;-70
2022/06/19 09:14:02;;;;;;;5.30;1.27;;;14.00;99.90;;;;;;5067909;28;20040;-72
2022/06/19 09:16:38;;;;;;;4.57;1.10;;;14.00;99.90;;;;;;5066876;28;20467;-72
2022/06/19 09:19:33;;;;;;;4.68;1.00;;;14.00;99.90;;;;;;5066879;28;20426;-72
2022/06/19 09:22:25;;;;;;;4.28;0.98;;;14.10;99.90;;;;;;5069814;28;20062;-71
2022/06/19 09:24:51;;;;;;;5.82;1.23;;;14.10;99.90;;;;;;5043992;28;20167;-71
2022/06/19 09:27:23;;;;;;;4.28;0.80;;;14.00;99.90;;;;;;5057920;28;20063;-69
2022/06/19 09:30:02;;;;;;;3.00;0.77;;;14.10;99.90;;;;;;5075204;28;20569;-69
2022/06/19 09:32:35;;;;;;;5.78;0.90;;;14.20;99.90;;;;;;5081641;28;20048;-69
2022/06/19 09:35:14;;;;;;;2.03;0.68;;;14.20;99.90;;;;;;5073071;28;20040;-69
2022/06/19 09:38:05;;;;;;;4.00;0.80;;;14.50;99.90;;;;;;5067358;28;20044;-70
2022/06/19 09:40:41;;;;;;;3.17;0.88;;;14.30;99.90;;;;;;5062099;28;20040;-70
2022/06/19 09:43:20;;;;;;;2.15;0.68;;;14.30;99.90;;;;;;5066607;28;20051;-69
2022/06/19 09:46:04;;;;;;;2.88;0.80;;;14.30;99.90;;;;;;5069898;28;20161;-69
2022/06/19 09:48:48;;;;;;;3.35;0.65;;;14.30;99.90;;;;;;5068860;28;20496;-69
2022/06/19 09:51:23;;;;;;;2.83;0.70;;;14.40;99.90;;;;;;5066862;28;20150;-69
2022/06/19 09:54:04;;;;;;;2.55;0.70;;;14.40;99.90;;;;;;5062440;28;20043;-69
2022/06/19 09:56:46;;;;;;;5.43;1.27;;;14.40;99.90;;;;;;5062852;28;20131;-71
2022/06/19 09:59:11;;;;;;;3.00;0.70;;;14.40;99.90;;;;;;5068128;28;20041;-69
2022/06/19 10:01:39;;;;;;;3.78;0.98;;;14.50;99.90;;;;;;5074491;28;20043;-69
2022/06/19 10:04:13;;;;;;;3.40;0.90;;;14.50;99.90;;;;;;5056626;28;20032;-67
2022/06/19 10:06:48;;;;;;;3.10;0.90;;;14.60;99.90;;;;;;5059199;28;20400;-68
2022/06/19 10:09:26;;;;;;;4.63;1.00;;;14.70;99.90;;;;;;5072230;28;20480;-70
2022/06/19 10:11:56;;;;;;;5.95;1.00;;;14.60;99.90;;;;;;5075934;28;20140;-70
2022/06/19 10:14:27;;;;;;;5.57;1.15;;;14.60;99.90;;;;;;5045397;28;20041;-71
2022/06/19 10:17:04;;;;;;;3.05;0.80;;;14.70;99.90;;;;;;5038243;28;20129;-71
2022/06/19 10:19:46;;;;;;;3.67;0.90;;;14.70;99.90;;;;;;5068171;28;20492;-70
2022/06/19 10:22:37;;;;;;;3.75;0.95;;;14.80;99.90;;;;;;5069578;28;20044;-70
2022/06/19 10:25:38;;;;;;;3.13;0.75;;;14.80;99.90;;;;;;5067293;28;20037;-68
2022/06/19 10:28:39;;;;;;;3.45;1.00;;;15.10;99.90;;;;;;5068766;28;20048;-71
2022/06/19 10:31:20;;;;;;;1.92;0.65;;;14.90;99.90;;;;;;5067777;28;20048;-71
2022/06/19 10:33:47;;;;;;;1.92;0.70;;;14.90;99.90;;;;;;5069131;28;20037;-71
2022/06/19 10:37:03;;;;;;;2.83;0.80;;;15.10;99.90;;;;;;5067936;28;20090;-71
2022/06/19 10:39:45;;;;;;;3.30;0.90;;;15.00;99.90;;;;;;5046332;28;20657;-71
2022/06/19 10:42:34;;;;;;;2.05;0.80;;;15.20;99.90;;;;;;5042939;28;20040;-71
2022/06/19 10:45:05;;;;;;;2.67;0.80;;;15.30;99.90;;;;;;5045138;28;20045;-71
2022/06/19 10:47:49;;;;;;;2.05;0.70;;;15.50;99.90;;;;;;5065821;28;20045;-71
2022/06/19 10:50:26;;;;;;;1.80;0.80;;;15.60;99.90;;;;;;5065335;28;20079;-72
2022/06/19 10:53:16;;;;;;;1.63;0.70;;;15.70;99.90;;;;;;5067927;28;20086;-71
2022/06/19 10:56:00;;;;;;;1.73;0.60;;;16.10;99.90;;;;;;5051517;28;20032;-71
2022/06/19 10:58:29;;;;;;;1.88;0.60;;;16.40;99.90;;;;;;5068891;28;20123;-72
2022/06/19 11:00:59;;;;;;;2.42;1.02;;;16.30;99.90;;;;;;5067446;28;20058;-71
2022/06/19 11:06:58;;;;;;;1.08;0.40;;;16.40;99.90;;;;;;5085990;28;20036;-72
2022/06/19 11:09:32;;;;;;;2.33;0.70;;;16.20;99.90;;;;;;5059949;28;20048;-72
2022/06/19 11:12:12;;;;;;;1.38;0.63;;;16.30;99.90;;;;;;5089301;28;20047;-72
2022/06/19 11:15:08;;;;;;;2.05;0.50;;;16.20;99.90;;;;;;5089404;28;20062;-72
2022/06/19 11:17:39;;;;;;;1.45;0.47;;;16.00;99.90;;;;;;5084331;28;20158;-72
2022/06/19 11:20:20;;;;;;;0.73;0.30;;;15.80;99.90;;;;;;5089286;28;20044;-72
2022/06/19 11:22:48;;;;;;;3.03;0.88;;;15.50;99.90;;;;;;5074027;28;20488;-71
2022/06/19 11:25:20;;;;;;;2.50;0.80;;;15.20;99.90;;;;;;5071525;28;20510;-71
2022/06/19 11:27:53;;;;;;;2.25;0.55;;;15.20;99.90;;;;;;5089166;28;20047;-70
2022/06/19 11:30:29;;;;;;;2.45;0.68;;;15.10;99.90;;;;;;5089239;28;20054;-69
2022/06/19 11:32:55;;;;;;;3.35;0.70;;;14.90;99.90;;;;;;5072718;28;20052;-69
2022/06/19 11:35:22;;;;;;;2.22;0.70;;;14.60;99.90;;;;;;5084719;28;20053;-70
2022/06/19 11:37:55;;;;;;;2.63;0.70;;;14.70;99.90;;;;;;5086014;28;20041;-71
2022/06/19 11:40:30;;;;;;;4.20;0.75;;;14.50;99.90;;;;;;5068414;28;20040;-70
2022/06/19 11:42:59;;;;;;;2.95;0.68;;;14.50;99.90;;;;;;5079979;28;20039;-70
2022/06/19 11:45:36;;;;;;;2.83;0.63;;;14.50;99.90;;;;;;5057374;28;20032;-71
2022/06/19 11:48:12;;;;;;;3.08;0.98;;;14.40;99.90;;;;;;5070149;28;20592;-71
2022/06/19 11:50:50;;;;;;;2.60;0.70;;;14.30;99.90;;;;;;5085526;28;20044;-71
2022/06/19 11:53:33;;;;;;;3.22;0.82;;;14.20;99.90;;;;;;5080512;28;20044;-71
2022/06/19 11:56:21;;;;;;;3.70;0.80;;;14.30;99.90;;;;;;5091119;28;20171;-71
2022/06/19 11:58:59;;;;;;;2.08;0.80;;;14.30;99.90;;;;;;5087041;28;20050;-71
2022/06/19 12:01:54;;;;;;;3.15;0.80;;;14.40;99.90;;;;;;5092303;28;20093;-71
2022/06/19 12:04:25;;;;;;;2.65;0.80;;;14.40;99.90;;;;;;5075125;28;20082;-71
2022/06/19 12:06:55;;;;;;;2.88;1.00;;;14.40;99.90;;;;;;5092289;28;20043;-71
2022/06/19 12:09:34;;;;;;;4.05;1.20;;;14.40;99.90;;;;;;5091906;28;20052;-71
2022/06/19 12:12:04;;;;;;;3.22;0.90;;;14.40;99.90;;;;;;5092150;28;20040;-71
2022/06/19 12:14:33;;;;;;;3.80;0.85;;;14.40;99.90;;;;;;5075078;28;20422;-71
2022/06/19 12:17:23;;;;;;;3.78;0.95;;;14.50;99.90;;;;;;5091955;28;20788;-72
2022/06/19 12:19:54;;;;;;;3.38;0.80;;;14.50;99.90;;;;;;5091727;28;20040;-71
2022/06/19 12:22:41;;;;;;;4.35;0.98;;;14.50;99.90;;;;;;5092170;28;20100;-71
2022/06/19 12:25:31;;;;;;;5.40;1.20;;;14.60;99.90;;;;;;5091695;28;20040;-71
2022/06/19 12:27:57;;;;;;;5.60;1.10;;;14.80;99.90;;;;;;5092295;28;20286;-71
2022/06/19 12:30:35;;;;;;;3.55;1.17;;;15.00;99.90;;;;;;5091810;28;20491;-71
2022/06/19 12:33:09;;;;;;;3.80;0.90;;;15.50;99.90;;;;;;5091694;28;20051;-71
2022/06/19 12:35:39;;;;;;;1.70;0.70;;;15.70;99.90;;;;;;5091778;28;20048;-71
2022/06/19 12:38:14;;;;;;;4.75;1.13;;;16.00;99.90;;;;;;5075324;28;20083;-71
2022/06/19 12:41:01;;;;;;;4.10;1.00;;;15.90;99.90;;;;;;5047550;28;20838;-71
2022/06/19 12:43:30;;;;;;;3.85;0.90;;;16.20;99.90;;;;;;5091462;28;20032;-71
2022/06/19 12:45:58;;;;;;;4.43;1.00;;;16.00;99.90;;;;;;5091743;28;20028;-71
2022/06/19 12:48:42;;;;;;;5.35;1.10;;;16.10;99.90;;;;;;5091314;28;20505;-71
2022/06/19 12:51:13;;;;;;;2.55;0.90;;;16.00;99.90;;;;;;5091425;28;20093;-71
2022/06/19 12:53:57;;;;;;;3.15;0.75;;;16.40;99.90;;;;;;5091028;28;20044;-71
2022/06/19 12:56:26;;;;;;;2.33;0.90;;;16.60;99.90;;;;;;5091299;28;20043;-71
2022/06/19 12:59:10;;;;;;;2.17;0.77;;;16.50;99.90;;;;;;5074049;28;20040;-72
2022/06/19 13:02:00;;;;;;;1.73;0.60;;;16.30;99.90;;;;;;5091059;28;20562;-71
2022/06/19 13:04:54;;;;;;;5.18;1.08;;;16.40;99.90;;;;;;5090840;28;20049;-71
2022/06/19 13:07:41;;;;;;;2.75;1.00;;;16.30;99.90;;;;;;5090272;28;20036;-71
2022/06/19 13:10:29;;;;;;;5.88;1.30;;;16.30;99.90;;;;;;5064844;28;20043;-71
2022/06/19 13:13:16;;;;;;;5.53;1.10;;;16.20;99.90;;;;;;5090671;28;20075;-71
2022/06/19 13:15:51;;;;;;;16.92;15.00;;;16.30;99.90;;;;;;5073883;28;20055;-71
2022/06/19 13:18:39;;;;;;;9.52;7.13;;;16.40;99.90;;;;;;5090372;28;20052;-71
2022/06/19 13:21:12;;;;;;;15.52;9.57;;;16.50;99.90;;;;;;5090679;28;20050;-71
2022/06/19 13:23:57;;;;;;;29.48;25.63;;;16.50;99.90;;;;;;5090433;28;20040;-71
2022/06/19 13:29:35;;;;;;;9.27;4.53;;;17.10;99.90;;;;;;5085949;28;20055;-72